Aeroporto :







RITROVATECI SU...

 
LOGIN :

Iscrizione | Disclaimer

   EN    FR    IT 

 









Sommario :    VFR   VFR Marginale   IFR   IFR Intensivo   IFR Molto Intensivo
Visibilità : 
Base nubi : 
>= 8 km
>= 3000ft
5 / 8 km
1000 / 3000 ft
1500m / 5 km
500 / 1000 ft
800 / 1500m
200 / 500 ft
< 800m
< 200 ft
Simboli :   Temporali  Nebbia  Neve Forte  Precipitazioni Forti  Vento > 20 kt






- Altitudine del aeroporto : 29 ft
- Codice IATA : CUR


TNCC - Willemstad/Hato Int.

ULTIMO METAR :
  • 281500Z 09012KT 9999 FEW025 32/25 Q1012 NOSIG

METARs OBSOLETI :
  • 281400Z 09011KT 9999 FEW023 31/26 Q1012 NOSIG
  • 281300Z 10012KT 080V140 9999 FEW022 31/25 Q1012 NOSIG

TAF TAF TNCC
Valido dal 28 a 12 ore il 29 a 12 ore UTC


281115Z 2812/2912 11012KT 9999 FEW020
PROB30
TEMPO 2906/2912 3000 TSRA FEW012CB BKN014
FIR TNCF / America del Nord



MetMap, La meteo Aeronautica in un colpo d'occhio ! - Copyright ORBIFLY Dicembre 2007 - Disclaimer

ORBIFLY MET'MAP TEAM :

Programmazione e sviluppo : Alexandra Zaïnal
Concezione : Baudouin d'Aumeries
Aiuto per la programmazione : Marc-Olivier Méhu
Supporto tecnico e logistico : Manuel Goepfert
Aiuto per la traduzione : Arnaldo La Scala

Contatto : metmap@orbifly.com




FONTI E CREDITI :

   NOAA